Terminal Aerodrome Forecast
Issued by NWS

Home | Current Version | Previous Version | Text Only | Print | Product List | Glossary On
Versions: 1 2 3 4 5 6 7 8 9 10 11 12
000
FTUS42 KTAE 290532
TAFDHN
TAF
KDHN 290532Z 2906/3006 VRB04KT P6SM OVC250
     FM291300 10007KT P6SM SCT040 BKN250
     FM291900 11007KT P6SM VCTS SCT040CB
     FM300400 VRB03KT P6SM BKN250=

USA.gov is the U.S. government's official web portal to all federal, state and local government web resources and services.